Time;durP1;ratioP1;P1;durP2;ratioP2;P2;SDS_P1;SDS_P2;PMS_P1;PMS_P2;Temp;Humidity;BMP_temperature;BMP_pressure;BME280_temperature;BME280_humidity;BME280_pressure;Samples;Min_cycle;Max_cycle;Signal;HPM_P1;HPM_P2
2023/01/26 00:02:16;;;;;;;54.43;13.63;;;2.20;99.90;;;;;;5064384;28;20486;-59
2023/01/26 00:04:42;;;;;;;82.93;17.33;;;2.10;99.90;;;;;;5056885;28;20490;-59
2023/01/26 00:07:09;;;;;;;52.10;14.53;;;2.00;99.90;;;;;;5055296;28;21091;-59
2023/01/26 00:09:36;;;;;;;37.83;9.37;;;;;;;;;;5084413;27;20495;-59
2023/01/26 00:12:03;;;;;;;38.63;10.60;;;;;;;;;;5044238;28;20668;-58
2023/01/26 00:14:48;;;;;;;58.07;13.03;;;1.90;99.90;;;;;;5047221;28;20510;-59
2023/01/26 00:17:24;;;;;;;42.93;7.60;;;1.80;99.90;;;;;;5056484;28;20482;-59
2023/01/26 00:19:52;;;;;;;71.67;14.53;;;1.90;99.90;;;;;;5053448;28;20487;-59
2023/01/26 00:22:19;;;;;;;43.20;11.00;;;1.90;99.90;;;;;;5078693;27;20465;-59
2023/01/26 00:24:46;;;;;;;65.57;17.90;;;1.90;99.90;;;;;;5060437;27;20479;-59
2023/01/26 00:27:12;;;;;;;35.43;10.17;;;1.90;99.90;;;;;;5076383;28;20482;-58
2023/01/26 00:29:39;;;;;;;52.50;12.67;;;;;;;;;;5049136;28;20526;-58
2023/01/26 00:32:06;;;;;;;28.47;6.50;;;1.80;99.90;;;;;;5087682;27;20470;-58
2023/01/26 00:34:34;;;;;;;40.73;10.37;;;;;;;;;;5057341;28;20509;-58
2023/01/26 00:37:01;;;;;;;45.57;10.90;;;;;;;;;;5048424;28;20491;-58
2023/01/26 00:39:28;;;;;;;30.10;6.20;;;;;;;;;;5053885;28;20553;-59
2023/01/26 00:42:09;;;;;;;41.07;8.83;;;;;;;;;;5070482;28;20489;-59
2023/01/26 00:44:38;;;;;;;32.23;9.03;;;1.80;99.90;;;;;;5043249;28;21008;-59
2023/01/26 00:47:05;;;;;;;40.50;8.90;;;;;;;;;;5056225;28;20485;-59
2023/01/26 00:49:31;;;;;;;36.53;11.33;;;2.10;99.90;;;;;;5053708;28;21010;-59
2023/01/26 00:52:00;;;;;;;32.53;9.97;;;2.20;99.90;;;;;;5052611;27;21565;-59
2023/01/26 00:54:27;;;;;;;30.73;10.13;;;2.20;99.90;;;;;;5045599;28;20487;-58
2023/01/26 00:56:54;;;;;;;47.73;13.37;;;2.20;99.90;;;;;;5085051;27;21149;-58
2023/01/26 00:59:21;;;;;;;35.10;11.30;;;2.20;99.90;;;;;;5049999;28;20479;-59
2023/01/26 01:01:48;;;;;;;59.63;15.00;;;2.20;99.90;;;;;;5050804;28;20490;-58
2023/01/26 01:04:15;;;;;;;30.33;9.60;;;2.10;99.90;;;;;;5054897;28;20466;-59
2023/01/26 01:06:43;;;;;;;51.10;14.77;;;2.30;99.90;;;;;;5042286;28;20483;-58
2023/01/26 01:09:11;;;;;;;35.80;9.47;;;2.30;99.90;;;;;;5082170;28;20478;-59
2023/01/26 01:11:38;;;;;;;37.80;10.73;;;2.40;99.90;;;;;;5063744;28;20485;-58
2023/01/26 01:14:05;;;;;;;35.10;9.60;;;2.50;99.90;;;;;;5057361;28;20548;-58
2023/01/26 01:16:32;;;;;;;48.30;12.53;;;2.40;99.90;;;;;;5072968;28;20493;-58
2023/01/26 01:18:59;;;;;;;41.17;11.00;;;;;;;;;;5058479;28;21387;-58
2023/01/26 01:21:26;;;;;;;38.93;11.03;;;2.20;99.90;;;;;;5073557;28;20478;-58
2023/01/26 01:23:53;;;;;;;82.53;17.23;;;2.10;99.90;;;;;;5055873;28;20904;-58
2023/01/26 01:26:21;;;;;;;50.77;12.10;;;2.20;99.90;;;;;;5055669;28;20479;-58
2023/01/26 01:28:47;;;;;;;114.03;17.37;;;2.30;99.90;;;;;;5053798;28;20527;-59
2023/01/26 01:31:16;;;;;;;60.33;10.70;;;2.40;99.90;;;;;;5066064;28;20487;-59
2023/01/26 01:33:43;;;;;;;56.50;14.93;;;2.50;99.90;;;;;;5049021;28;20542;-59
2023/01/26 01:36:12;;;;;;;39.07;11.53;;;2.50;99.90;;;;;;5068911;28;20942;-59
2023/01/26 01:38:39;;;;;;;46.07;13.67;;;2.50;99.90;;;;;;5046717;28;21006;-59
2023/01/26 01:41:07;;;;;;;38.77;9.47;;;2.50;99.90;;;;;;5051941;28;20487;-59
2023/01/26 01:43:35;;;;;;;35.60;11.20;;;2.60;99.90;;;;;;5072174;28;20562;-60
2023/01/26 01:46:03;;;;;;;42.83;10.23;;;;;;;;;;5064548;28;20505;-59
2023/01/26 01:48:35;;;;;;;51.50;10.33;;;2.60;99.90;;;;;;5063800;28;20493;-59
2023/01/26 01:51:06;;;;;;;45.27;11.50;;;2.70;99.90;;;;;;5057755;28;20516;-59
2023/01/26 01:53:37;;;;;;;49.07;13.23;;;2.70;99.90;;;;;;5057779;28;20491;-59
2023/01/26 01:56:09;;;;;;;44.63;11.13;;;2.60;99.90;;;;;;5062380;28;20496;-59
2023/01/26 01:58:41;;;;;;;63.67;13.03;;;2.80;99.90;;;;;;5054980;28;20487;-59
2023/01/26 02:01:08;;;;;;;54.17;12.83;;;2.80;99.90;;;;;;5053344;28;20548;-58
2023/01/26 02:03:36;;;;;;;50.70;12.63;;;2.80;99.90;;;;;;5045103;28;20537;-59
2023/01/26 02:06:07;;;;;;;65.43;14.90;;;2.80;99.90;;;;;;5053196;28;20511;-59
2023/01/26 02:08:36;;;;;;;83.93;13.97;;;;;;;;;;5065472;28;21405;-59
2023/01/26 02:11:06;;;;;;;57.23;12.70;;;;;;;;;;5070636;28;20541;-59
2023/01/26 02:13:34;;;;;;;57.67;12.70;;;;;;;;;;5054432;28;21018;-59
2023/01/26 02:16:02;;;;;;;42.23;10.93;;;3.00;99.90;;;;;;5062093;28;20486;-58
2023/01/26 02:18:29;;;;;;;50.73;12.80;;;3.00;99.90;;;;;;5065326;28;20489;-59
2023/01/26 02:20:59;;;;;;;76.03;15.50;;;3.00;99.90;;;;;;5070874;28;20869;-58
2023/01/26 02:23:45;;;;;;;46.23;12.17;;;2.90;99.90;;;;;;5067053;28;20479;-59
2023/01/26 02:26:15;;;;;;;54.80;11.33;;;;;;;;;;5046533;28;20486;-59
2023/01/26 02:28:43;;;;;;;89.13;17.07;;;;;;;;;;5065978;28;21404;-59
2023/01/26 02:31:11;;;;;;;42.73;11.30;;;;;;;;;;5067576;28;20477;-59
2023/01/26 02:33:38;;;;;;;41.47;11.23;;;2.30;99.90;;;;;;5053879;28;20475;-59
2023/01/26 02:36:06;;;;;;;35.47;11.63;;;2.30;99.90;;;;;;5060327;28;20546;-59
2023/01/26 02:38:39;;;;;;;38.40;10.53;;;2.20;99.90;;;;;;5050474;28;20918;-59
2023/01/26 02:41:08;;;;;;;41.50;11.40;;;2.20;99.90;;;;;;5041770;28;20472;-59
2023/01/26 02:43:36;;;;;;;33.70;9.70;;;2.10;99.90;;;;;;5053045;28;21051;-59
2023/01/26 02:46:03;;;;;;;25.23;9.00;;;;;;;;;;5045181;28;20536;-59
2023/01/26 02:51:14;;;;;;;33.27;10.80;;;2.20;99.90;;;;;;5055337;28;20809;-59
2023/01/26 02:53:41;;;;;;;50.77;13.40;;;2.30;99.90;;;;;;5056481;28;20734;-59
2023/01/26 02:56:07;;;;;;;43.20;11.17;;;;;;;;;;5055487;28;20485;-59
2023/01/26 02:58:34;;;;;;;40.27;11.43;;;2.50;99.90;;;;;;5078089;28;20572;-59
2023/01/26 03:01:02;;;;;;;41.63;11.00;;;2.60;99.90;;;;;;5053992;28;21011;-59
2023/01/26 03:03:40;;;;;;;49.77;12.60;;;2.70;99.90;;;;;;5042706;28;20564;-59
2023/01/26 03:06:07;;;;;;;57.43;11.57;;;2.60;99.90;;;;;;5055820;28;20497;-59
2023/01/26 03:08:34;;;;;;;27.33;10.10;;;2.70;99.90;;;;;;5058554;28;20486;-59
2023/01/26 03:11:01;;;;;;;32.73;9.47;;;2.70;99.90;;;;;;5066798;28;20491;-59
2023/01/26 03:13:28;;;;;;;50.50;11.63;;;2.70;99.90;;;;;;5065222;28;20470;-59
2023/01/26 03:15:54;;;;;;;56.47;14.30;;;2.60;99.90;;;;;;5069810;28;21225;-59
2023/01/26 03:29:26;;;;;;;35.97;11.30;;;2.90;99.90;;;;;;5065037;28;20488;-58
2023/01/26 03:31:53;;;;;;;65.80;15.67;;;2.90;99.90;;;;;;5076763;28;20513;-59
2023/01/26 03:34:21;;;;;;;51.47;11.27;;;2.80;99.90;;;;;;5057360;28;20743;-59
2023/01/26 03:36:48;;;;;;;69.03;13.97;;;2.60;99.90;;;;;;5072717;28;21029;-59
2023/01/26 03:58:24;;;;;;;40.63;11.10;;;2.70;99.90;;;;;;5051251;28;20504;-59
2023/01/26 04:00:51;;;;;;;50.43;13.13;;;2.60;99.90;;;;;;5069024;28;20541;-59
2023/01/26 04:08:47;;;;;;;66.27;15.30;;;2.60;99.90;;;;;;5056299;28;20592;-59
2023/01/26 04:11:14;;;;;;;33.73;8.10;;;2.70;99.90;;;;;;5068551;28;21028;-59
2023/01/26 04:21:55;;;;;;;33.97;11.10;;;;;;;;;;5079212;28;20513;-59
2023/01/26 04:24:23;;;;;;;43.20;10.13;;;;;;;;;;5043260;28;20482;-59
2023/01/26 04:26:49;;;;;;;62.43;16.23;;;2.90;99.90;;;;;;5058303;28;20843;-59
2023/01/26 04:29:16;;;;;;;42.90;12.97;;;2.60;99.90;;;;;;5067479;28;20482;-59
2023/01/26 04:31:43;;;;;;;60.37;17.47;;;2.40;99.90;;;;;;5059535;28;20466;-58
2023/01/26 04:34:12;;;;;;;27.43;9.57;;;2.50;99.90;;;;;;5065116;28;20901;-59
2023/01/26 04:36:39;;;;;;;48.40;13.20;;;;;;;;;;5055487;28;20576;-59
2023/01/26 04:39:07;;;;;;;35.83;9.57;;;2.70;99.90;;;;;;5080453;28;20522;-58
2023/01/26 04:41:34;;;;;;;41.70;12.17;;;;;;;;;;5079237;28;20917;-59
2023/01/26 04:44:02;;;;;;;32.37;8.63;;;;;;;;;;5053338;28;21143;-58
2023/01/26 04:46:29;;;;;;;48.53;11.60;;;;;;;;;;5049847;28;20496;-59
2023/01/26 04:48:55;;;;;;;46.10;11.90;;;2.60;99.90;;;;;;5072804;28;20486;-58
2023/01/26 04:51:22;;;;;;;37.40;9.83;;;2.60;99.90;;;;;;5064867;28;20487;-59
2023/01/26 04:53:50;;;;;;;54.20;13.43;;;2.50;99.90;;;;;;5050846;28;20494;-58
2023/01/26 04:56:22;;;;;;;41.37;9.70;;;2.40;99.90;;;;;;5044645;28;20479;-59
2023/01/26 04:58:49;;;;;;;66.47;15.33;;;2.40;99.90;;;;;;5071472;28;20469;-59
2023/01/26 05:01:16;;;;;;;41.70;10.40;;;4.50;99.90;;;;;;5057530;28;20478;-59
2023/01/26 05:03:43;;;;;;;75.43;13.00;;;2.30;99.90;;;;;;5068948;28;20482;-59
2023/01/26 05:06:10;;;;;;;40.37;9.77;;;;;;;;;;5075072;28;20481;-59
2023/01/26 05:08:37;;;;;;;59.20;11.80;;;2.30;99.90;;;;;;5060310;28;20925;-59
2023/01/26 05:11:05;;;;;;;44.07;10.53;;;2.30;99.90;;;;;;5066327;28;20542;-59
2023/01/26 05:13:34;;;;;;;57.67;12.27;;;2.40;99.90;;;;;;5070671;28;20741;-59
2023/01/26 05:16:01;;;;;;;58.53;13.23;;;2.50;99.90;;;;;;5061837;28;20541;-59
2023/01/26 05:18:28;;;;;;;54.57;12.07;;;2.60;99.90;;;;;;5064382;28;20474;-59
2023/01/26 05:20:55;;;;;;;54.87;13.27;;;2.70;99.90;;;;;;5064491;28;20542;-59
2023/01/26 05:23:23;;;;;;;58.60;13.23;;;;;;;;;;5063274;28;20484;-59
2023/01/26 05:25:50;;;;;;;49.80;11.70;;;;;;;;;;5044105;28;20467;-59
2023/01/26 05:28:17;;;;;;;49.23;10.60;;;;;;;;;;5078669;28;20479;-59
2023/01/26 05:30:46;;;;;;;104.80;16.53;;;2.60;99.90;;;;;;5070279;28;20485;-59
2023/01/26 05:33:13;;;;;;;57.47;10.77;;;2.50;99.90;;;;;;5059108;28;20564;-59
2023/01/26 05:35:40;;;;;;;73.73;17.13;;;2.60;99.90;;;;;;5057022;28;20740;-59
2023/01/26 05:38:07;;;;;;;39.97;10.80;;;;;;;;;;5079126;28;20493;-59
2023/01/26 05:40:34;;;;;;;46.90;10.83;;;;;;;;;;5038458;28;20501;-59
2023/01/26 05:43:01;;;;;;;38.07;10.33;;;;;;;;;;5059925;28;20855;-59
2023/01/26 05:45:28;;;;;;;49.70;12.03;;;2.70;99.90;;;;;;5070412;28;20470;-59
2023/01/26 05:47:56;;;;;;;51.30;12.73;;;;;;;;;;5054248;28;20980;-59
2023/01/26 05:50:23;;;;;;;42.93;11.03;;;2.80;99.90;;;;;;5073840;28;20486;-59
2023/01/26 05:52:50;;;;;;;54.97;13.60;;;2.80;99.90;;;;;;5066114;28;20489;-59
2023/01/26 05:55:19;;;;;;;41.20;9.60;;;2.70;99.90;;;;;;5077738;28;20482;-59
2023/01/26 05:57:46;;;;;;;51.23;15.10;;;2.70;99.90;;;;;;5077435;28;20477;-59
2023/01/26 06:00:16;;;;;;;39.40;12.17;;;;;;;;;;5068440;28;20502;-59
2023/01/26 06:02:43;;;;;;;52.30;16.00;;;2.80;99.90;;;;;;5080897;28;20900;-59
2023/01/26 06:05:11;;;;;;;33.07;11.07;;;2.70;99.80;;;;;;5053200;28;21349;-59
2023/01/26 06:07:39;;;;;;;41.47;11.07;;;;;;;;;;5079223;28;20488;-59
2023/01/26 06:10:07;;;;;;;40.83;11.50;;;2.80;99.90;;;;;;5054868;28;20490;-59
2023/01/26 06:12:35;;;;;;;37.63;11.43;;;2.80;99.90;;;;;;5055182;28;20484;-59
2023/01/26 06:15:02;;;;;;;27.73;9.50;;;2.80;99.90;;;;;;5067223;28;20488;-59
2023/01/26 06:17:29;;;;;;;22.10;7.10;;;2.70;99.60;;;;;;5052078;28;20965;-59
2023/01/26 06:19:56;;;;;;;41.30;12.60;;;2.80;99.90;;;;;;5080005;28;20482;-59
2023/01/26 06:22:24;;;;;;;45.60;11.70;;;2.80;99.90;;;;;;5072146;28;20488;-58
2023/01/26 06:24:51;;;;;;;56.47;14.70;;;2.70;99.70;;;;;;5045442;28;20513;-59
2023/01/26 06:27:18;;;;;;;43.23;9.87;;;2.60;99.90;;;;;;5060706;28;20466;-58
2023/01/26 06:29:45;;;;;;;50.27;12.90;;;;;;;;;;5043779;28;20494;-58
2023/01/26 06:32:12;;;;;;;49.07;12.07;;;;;;;;;;5066378;28;20544;-59
2023/01/26 06:34:39;;;;;;;66.40;13.87;;;;;;;;;;5068360;28;20522;-58
2023/01/26 06:37:07;;;;;;;35.47;8.60;;;;;;;;;;5053098;28;20950;-58
2023/01/26 06:39:35;;;;;;;38.70;11.13;;;0.50;99.40;;;;;;5081195;28;20492;-58
2023/01/26 06:42:02;;;;;;;37.30;10.57;;;2.90;99.90;;;;;;5071252;28;20474;-59
2023/01/26 06:44:29;;;;;;;45.90;11.20;;;;;;;;;;5052905;28;20485;-59
2023/01/26 06:46:56;;;;;;;46.47;12.13;;;;;;;;;;5043756;28;20550;-59
2023/01/26 06:49:23;;;;;;;49.50;11.50;;;;;;;;;;5033981;28;21215;-59
2023/01/26 06:52:03;;;;;;;64.50;16.63;;;2.90;99.90;;;;;;5064263;28;20558;-58
2023/01/26 06:54:29;;;;;;;49.17;13.23;;;;;;;;;;5047207;28;20548;-58
2023/01/26 06:56:58;;;;;;;49.93;13.83;;;;;;;;;;5061843;28;20483;-58
2023/01/26 06:59:24;;;;;;;45.83;12.63;;;2.90;99.90;;;;;;5056373;28;20477;-58
2023/01/26 07:01:52;;;;;;;66.77;18.50;;;;;;;;;;5038929;27;20493;-59
2023/01/26 07:04:19;;;;;;;59.00;17.87;;;;;;;;;;5030038;28;20938;-58
2023/01/26 07:06:45;;;;;;;72.03;19.60;;;2.90;99.90;;;;;;5057876;28;20740;-58
2023/01/26 07:09:12;;;;;;;44.47;12.27;;;2.90;99.90;;;;;;5078334;28;20535;-59
2023/01/26 07:11:39;;;;;;;37.40;12.37;;;;;;;;;;5075565;28;20470;-58
2023/01/26 07:14:07;;;;;;;40.20;12.90;;;2.90;99.90;;;;;;5064554;28;20554;-58
2023/01/26 07:16:34;;;;;;;54.33;14.03;;;2.70;99.90;;;;;;5058870;28;20491;-59
2023/01/26 07:19:01;;;;;;;28.63;11.30;;;;;;;;;;5041891;28;20860;-59
2023/01/26 07:21:27;;;;;;;41.87;12.10;;;2.60;99.90;;;;;;5083860;28;20495;-58
2023/01/26 07:23:55;;;;;;;72.17;15.23;;;2.60;99.90;;;;;;5072518;28;20511;-59
2023/01/26 07:26:22;;;;;;;47.87;13.23;;;2.60;99.90;;;;;;5065442;28;20483;-59
2023/01/26 07:28:48;;;;;;;52.07;15.10;;;2.60;99.90;;;;;;5054557;28;20833;-59
2023/01/26 07:31:16;;;;;;;53.73;15.53;;;2.70;99.90;;;;;;5074657;28;20490;-59
2023/01/26 07:33:43;;;;;;;71.13;20.47;;;2.70;99.90;;;;;;5057798;28;20482;-59
2023/01/26 07:36:10;;;;;;;44.70;16.07;;;;;;;;;;5079243;28;20486;-59
2023/01/26 07:38:37;;;;;;;67.10;17.50;;;;;;;;;;5064925;28;20544;-59
2023/01/26 07:41:06;;;;;;;44.93;14.57;;;;;;;;;;5058841;28;20549;-59
2023/01/26 07:43:33;;;;;;;48.97;13.27;;;;;;;;;;5062071;28;20546;-58
2023/01/26 07:46:00;;;;;;;37.33;12.17;;;2.70;99.90;;;;;;5048339;28;20486;-59
2023/01/26 07:48:29;;;;;;;34.33;12.07;;;;;;;;;;5056825;28;20539;-59
2023/01/26 07:50:58;;;;;;;57.93;15.30;;;2.80;99.90;;;;;;5052056;28;20492;-59
2023/01/26 07:53:27;;;;;;;53.90;15.20;;;2.90;99.90;;;;;;5069632;28;20491;-58
2023/01/26 07:56:04;;;;;;;59.00;13.13;;;2.90;99.90;;;;;;5068193;28;20480;-58
2023/01/26 07:58:31;;;;;;;37.43;11.10;;;2.90;99.90;;;;;;5081351;28;20468;-58
2023/01/26 08:01:08;;;;;;;36.77;10.50;;;3.00;99.90;;;;;;5067696;28;20504;-58
2023/01/26 08:03:36;;;;;;;41.50;10.80;;;3.10;99.90;;;;;;5060723;28;20572;-58
2023/01/26 08:06:04;;;;;;;30.80;9.63;;;3.10;99.60;;;;;;5073082;28;20486;-59
2023/01/26 08:08:31;;;;;;;62.33;12.97;;;3.10;99.60;;;;;;5055467;28;20538;-59
2023/01/26 08:10:59;;;;;;;27.47;10.73;;;3.00;99.40;;;;;;5076845;28;20519;-59
2023/01/26 08:13:26;;;;;;;35.93;12.70;;;3.00;99.50;;;;;;5045727;28;20483;-58
2023/01/26 08:15:52;;;;;;;50.90;14.33;;;2.90;99.40;;;;;;5065754;28;20891;-59
2023/01/26 08:18:19;;;;;;;32.43;10.57;;;;;;;;;;5060656;28;20507;-59
2023/01/26 08:20:54;;;;;;;69.83;17.60;;;3.00;99.80;;;;;;5068936;28;20489;-59
2023/01/26 08:23:21;;;;;;;36.97;11.17;;;3.00;99.70;;;;;;5061569;28;20481;-59
2023/01/26 08:25:48;;;;;;;57.47;15.30;;;3.00;99.60;;;;;;5086373;28;20526;-59
2023/01/26 08:28:15;;;;;;;33.70;11.20;;;2.90;99.20;;;;;;5081945;28;20553;-59
2023/01/26 08:30:42;;;;;;;49.57;13.57;;;;;;;;;;5063900;28;20476;-59
2023/01/26 08:33:09;;;;;;;30.83;10.60;;;3.00;99.40;;;;;;5077669;28;20487;-59
2023/01/26 08:35:35;;;;;;;27.23;10.40;;;3.00;99.50;;;;;;5056915;28;20477;-59
2023/01/26 08:38:04;;;;;;;37.67;9.67;;;2.90;99.00;;;;;;5074504;28;20487;-58
2023/01/26 08:40:30;;;;;;;30.57;10.50;;;3.00;99.10;;;;;;5054964;28;20874;-58
2023/01/26 08:43:01;;;;;;;31.03;9.00;;;2.90;98.70;;;;;;5061643;28;20559;-58
2023/01/26 08:45:27;;;;;;;27.17;7.27;;;2.90;98.50;;;;;;5074052;28;20495;-59
2023/01/26 08:47:54;;;;;;;44.90;11.73;;;;;;;;;;5073350;28;20532;-59
2023/01/26 08:50:21;;;;;;;40.60;12.53;;;;;;;;;;5046865;28;20494;-59
2023/01/26 08:52:48;;;;;;;68.07;16.37;;;2.70;98.70;;;;;;5053096;28;20999;-58
2023/01/26 08:55:17;;;;;;;37.53;10.40;;;;;;;;;;5075507;28;20473;-59
2023/01/26 08:57:45;;;;;;;59.17;17.10;;;;;;;;;;5046989;28;21953;-59
2023/01/26 09:00:13;;;;;;;52.60;13.83;;;2.80;98.90;;;;;;5044325;28;20975;-59
2023/01/26 09:02:40;;;;;;;46.23;13.47;;;2.80;98.90;;;;;;5079749;28;20918;-59
2023/01/26 09:05:08;;;;;;;34.83;8.67;;;2.80;98.60;;;;;;5051432;28;20546;-59
2023/01/26 09:07:35;;;;;;;51.83;13.40;;;2.80;98.50;;;;;;5067832;28;20558;-59
2023/01/26 09:10:02;;;;;;;24.30;9.40;;;2.80;98.50;;;;;;5055847;28;20494;-59
2023/01/26 09:12:30;;;;;;;27.50;7.40;;;2.90;98.50;;;;;;5058637;28;20532;-58
2023/01/26 09:14:57;;;;;;;30.70;9.03;;;;;;;;;;5081547;28;20483;-59
2023/01/26 09:17:24;;;;;;;39.33;11.37;;;;;;;;;;5055961;28;20481;-58
2023/01/26 09:19:50;;;;;;;53.73;16.03;;;2.90;98.30;;;;;;5057394;28;20495;-59
2023/01/26 09:22:17;;;;;;;27.93;9.07;;;2.90;98.20;;;;;;5067108;28;20494;-58
2023/01/26 09:24:44;;;;;;;39.23;12.23;;;2.80;97.80;;;;;;5069548;28;20579;-59
2023/01/26 09:27:10;;;;;;;24.03;8.17;;;2.80;97.80;;;;;;5056600;28;20487;-59
2023/01/26 09:29:38;;;;;;;27.80;10.03;;;2.80;97.80;;;;;;5083579;28;20569;-59
2023/01/26 09:32:05;;;;;;;21.73;8.00;;;2.80;97.80;;;;;;5052083;28;20532;-59
2023/01/26 09:34:32;;;;;;;21.73;8.07;;;2.80;97.80;;;;;;5050985;28;21002;-59
2023/01/26 09:36:59;;;;;;;25.63;7.93;;;2.70;97.70;;;;;;5062892;28;20538;-59
2023/01/26 09:39:25;;;;;;;32.03;8.23;;;2.50;97.40;;;;;;5059780;28;20756;-58
2023/01/26 09:41:57;;;;;;;47.50;14.07;;;;;;;;;;5065996;28;20893;-59
2023/01/26 09:44:26;;;;;;;26.33;9.30;;;2.60;98.10;;;;;;5081773;28;20478;-59
2023/01/26 09:47:01;;;;;;;39.67;12.43;;;;;;;;;;5059524;28;20477;-58
2023/01/26 09:49:35;;;;;;;41.87;10.70;;;2.70;98.20;;;;;;5050957;28;20491;-59
2023/01/26 09:52:05;;;;;;;30.53;8.60;;;;;;;;;;5033707;28;20546;-59
2023/01/26 09:54:38;;;;;;;25.80;9.70;;;2.80;98.00;;;;;;5068385;28;20478;-59
2023/01/26 09:57:13;;;;;;;25.53;8.20;;;2.80;97.60;;;;;;5055861;28;20477;-59
2023/01/26 09:59:48;;;;;;;35.93;13.00;;;2.80;97.90;;;;;;5064043;28;20474;-59
2023/01/26 10:02:29;;;;;;;46.53;10.87;;;;;;;;;;5068756;28;20484;-59
2023/01/26 10:05:01;;;;;;;42.40;11.53;;;2.80;97.30;;;;;;5056100;28;20533;-59
2023/01/26 10:07:28;;;;;;;35.57;10.23;;;;;;;;;;5081150;28;21056;-59
2023/01/26 10:09:55;;;;;;;44.33;12.93;;;2.80;97.40;;;;;;5076636;28;20485;-59
2023/01/26 10:12:25;;;;;;;39.27;8.37;;;2.90;97.70;;;;;;5045434;28;21225;-59
2023/01/26 10:14:53;;;;;;;46.47;11.90;;;;;;;;;;5057295;28;20662;-59
2023/01/26 10:17:30;;;;;;;25.50;8.47;;;2.90;97.50;;;;;;5059777;28;20470;-59
2023/01/26 10:20:03;;;;;;;24.23;8.83;;;2.90;97.60;;;;;;5060321;28;20490;-59
2023/01/26 10:22:36;;;;;;;41.77;11.50;;;2.90;97.60;;;;;;5062047;28;20485;-59
2023/01/26 10:25:10;;;;;;;29.93;8.23;;;2.90;97.70;;;;;;5050256;28;20483;-59
2023/01/26 10:27:37;;;;;;;31.90;9.53;;;;;;;;;;5072952;28;20498;-59
2023/01/26 10:30:06;;;;;;;33.63;8.77;;;;;;;;;;5057077;28;21181;-59
2023/01/26 10:32:34;;;;;;;23.77;6.70;;;;;;;;;;5055756;28;20533;-59
2023/01/26 10:35:02;;;;;;;19.40;6.87;;;2.60;97.10;;;;;;5061570;28;20503;-58
2023/01/26 10:37:30;;;;;;;34.13;8.87;;;2.70;97.50;;;;;;5045021;28;21024;-59
2023/01/26 10:39:59;;;;;;;42.17;10.60;;;2.80;97.40;;;;;;5049582;28;20560;-59
2023/01/26 10:42:28;;;;;;;30.70;9.70;;;;;;;;;;5053296;28;20489;-59
2023/01/26 10:44:55;;;;;;;48.97;11.50;;;2.80;97.60;;;;;;5059242;28;20541;-59
2023/01/26 10:47:21;;;;;;;38.77;11.60;;;2.80;97.50;;;;;;5034506;28;20483;-59
2023/01/26 10:49:48;;;;;;;55.63;15.33;;;2.90;97.50;;;;;;5068851;28;20483;-59
2023/01/26 10:52:20;;;;;;;33.13;10.07;;;2.90;97.60;;;;;;5059797;28;20540;-59
2023/01/26 10:54:47;;;;;;;51.80;14.03;;;2.80;97.30;;;;;;5045491;28;20493;-59
2023/01/26 10:57:22;;;;;;;30.17;9.03;;;4.10;97.80;;;;;;5058784;28;20565;-60
2023/01/26 10:59:53;;;;;;;52.87;14.57;;;2.70;97.20;;;;;;5079441;28;20483;-60
2023/01/26 11:02:26;;;;;;;30.57;9.80;;;2.60;97.30;;;;;;5043736;28;20477;-59
2023/01/26 11:05:13;;;;;;;31.63;9.33;;;2.60;97.40;;;;;;5069359;28;20507;-59
2023/01/26 11:07:42;;;;;;;48.50;13.50;;;;;;;;;;5065081;28;20483;-59
2023/01/26 11:10:24;;;;;;;19.10;6.90;;;2.50;97.20;;;;;;5060449;28;21036;-59
2023/01/26 11:12:52;;;;;;;35.03;10.87;;;2.50;97.10;;;;;;5055579;28;20478;-59
2023/01/26 11:15:21;;;;;;;28.10;8.73;;;2.50;97.30;;;;;;5038586;28;20470;-60
2023/01/26 11:17:58;;;;;;;56.77;15.40;;;2.50;97.20;;;;;;5068644;28;20487;-59
2023/01/26 11:20:44;;;;;;;23.73;7.67;;;2.50;97.20;;;;;;5073757;28;20455;-59
2023/01/26 11:23:21;;;;;;;20.43;7.10;;;2.60;97.40;;;;;;5046138;28;20508;-59
2023/01/26 11:26:03;;;;;;;54.53;14.60;;;;;;;;;;5046967;28;20485;-59
2023/01/26 11:28:44;;;;;;;28.37;8.27;;;2.70;97.00;;;;;;5074388;28;20519;-59
2023/01/26 11:31:23;;;;;;;21.73;8.20;;;2.70;97.00;;;;;;5066772;28;20514;-59
2023/01/26 11:34:04;;;;;;;50.33;12.73;;;2.70;96.80;;;;;;5060245;28;20474;-59
2023/01/26 11:36:39;;;;;;;45.70;13.10;;;2.70;97.00;;;;;;5053685;28;20797;-59
2023/01/26 11:39:15;;;;;;;24.43;7.83;;;2.60;96.90;;;;;;5057815;28;20504;-59
2023/01/26 11:41:55;;;;;;;48.83;10.33;;;2.70;97.10;;;;;;5051425;28;20511;-59
2023/01/26 11:44:42;;;;;;;45.50;11.27;;;2.60;96.80;;;;;;5055862;28;20501;-59
2023/01/26 11:47:18;;;;;;;32.10;9.50;;;;;;;;;;5064341;28;20481;-59
2023/01/26 11:49:58;;;;;;;61.97;15.90;;;2.70;97.10;;;;;;5050094;28;20490;-59
2023/01/26 11:52:33;;;;;;;29.80;9.63;;;2.70;97.20;;;;;;5064653;28;20842;-59
2023/01/26 11:55:25;;;;;;;28.73;8.63;;;;;;;;;;5044979;28;20592;-59
2023/01/26 11:58:02;;;;;;;55.23;13.50;;;;;;;;;;5038859;28;20493;-59
2023/01/26 12:00:40;;;;;;;33.43;7.90;;;2.70;96.90;;;;;;5070504;28;20610;-59
2023/01/26 12:03:15;;;;;;;29.77;8.30;;;2.80;96.80;;;;;;5060300;28;20491;-59
2023/01/26 12:05:46;;;;;;;49.13;10.30;;;2.80;96.90;;;;;;5055933;28;20491;-59
2023/01/26 12:08:19;;;;;;;33.53;9.27;;;2.80;96.70;;;;;;5055535;28;20484;-59
2023/01/26 12:10:54;;;;;;;51.57;13.50;;;2.80;96.40;;;;;;5064144;28;20478;-59
2023/01/26 12:13:26;;;;;;;36.80;8.70;;;;;;;;;;5052879;28;20528;-59
2023/01/26 12:15:57;;;;;;;56.23;11.90;;;2.70;96.00;;;;;;5066880;28;20890;-59
2023/01/26 12:18:27;;;;;;;32.70;7.80;;;;;;;;;;5052351;28;20505;-59
2023/01/26 12:20:57;;;;;;;40.67;10.37;;;;;;;;;;5060516;28;20506;-59
2023/01/26 12:23:32;;;;;;;43.40;9.47;;;2.40;96.40;;;;;;5071589;28;20491;-59
2023/01/26 12:26:02;;;;;;;30.70;8.20;;;;;;;;;;5054347;28;20473;-59
2023/01/26 12:28:34;;;;;;;42.03;7.30;;;2.50;96.10;;;;;;5054467;28;20503;-59
2023/01/26 12:31:06;;;;;;;52.37;9.83;;;2.60;96.40;;;;;;5037448;28;21185;-59
2023/01/26 12:33:34;;;;;;;36.93;9.13;;;;;;;;;;5062676;28;20487;-59
2023/01/26 12:36:15;;;;;;;30.97;8.83;;;;;;;;;;5053359;28;20854;-59
2023/01/26 12:39:00;;;;;;;52.80;13.80;;;2.80;96.30;;;;;;5067074;28;20473;-59
2023/01/26 12:41:37;;;;;;;32.33;9.00;;;2.80;96.50;;;;;;5059514;28;20502;-59
2023/01/26 12:44:18;;;;;;;36.57;8.97;;;2.80;96.20;;;;;;5059889;28;20572;-59
2023/01/26 12:46:50;;;;;;;46.93;13.97;;;2.90;96.50;;;;;;5037323;28;20536;-59
2023/01/26 12:49:21;;;;;;;46.53;10.93;;;2.90;96.20;;;;;;5074075;28;20490;-59
2023/01/26 12:51:54;;;;;;;47.10;10.83;;;2.70;95.80;;;;;;5075322;28;20523;-59
2023/01/26 12:54:28;;;;;;;46.87;10.20;;;2.70;96.10;;;;;;5071657;27;20505;-59
2023/01/26 12:56:59;;;;;;;34.73;10.97;;;;;;;;;;5062630;28;20469;-59
2023/01/26 12:59:31;;;;;;;40.00;8.70;;;2.60;96.10;;;;;;5059502;28;20480;-58
2023/01/26 13:01:57;;;;;;;32.97;7.70;;;2.50;96.00;;;;;;5035987;28;20878;-59
2023/01/26 13:04:24;;;;;;;31.07;9.80;;;2.50;95.80;;;;;;5080540;28;20487;-59
2023/01/26 13:07:03;;;;;;;33.53;9.57;;;0.00;94.40;;;;;;5047833;28;21021;-59
2023/01/26 13:09:30;;;;;;;36.07;10.57;;;2.50;95.60;;;;;;5036954;28;20501;-59
2023/01/26 13:11:59;;;;;;;29.03;9.03;;;;;;;;;;5068155;28;20487;-59
2023/01/26 13:14:29;;;;;;;28.13;9.03;;;2.50;95.50;;;;;;5059403;28;20477;-59
2023/01/26 13:16:57;;;;;;;35.57;10.60;;;2.40;95.40;;;;;;5059525;28;20487;-59
2023/01/26 13:19:50;;;;;;;37.40;10.43;;;2.40;95.90;;;;;;5043119;28;20482;-59
2023/01/26 13:22:32;;;;;;;33.93;9.97;;;;;;;;;;5061725;28;20497;-59
2023/01/26 13:24:59;;;;;;;32.53;8.83;;;;;;;;;;5033559;28;20487;-59
2023/01/26 13:27:31;;;;;;;37.23;11.00;;;2.50;95.40;;;;;;5042776;28;20795;-58
2023/01/26 13:29:58;;;;;;;32.97;8.47;;;2.50;95.70;;;;;;5052670;28;20813;-59
2023/01/26 13:32:51;;;;;;;23.67;6.90;;;2.40;95.50;;;;;;5067117;28;20580;-59
2023/01/26 13:35:20;;;;;;;37.17;9.10;;;2.40;95.60;;;;;;5046561;28;20543;-59
2023/01/26 13:37:53;;;;;;;48.03;13.93;;;2.50;96.10;;;;;;5077718;28;20482;-58
2023/01/26 13:40:23;;;;;;;33.90;9.10;;;2.60;96.10;;;;;;5054729;28;20910;-59
2023/01/26 13:42:57;;;;;;;53.17;13.00;;;2.70;95.90;;;;;;5039381;28;20479;-59
2023/01/26 13:45:27;;;;;;;32.47;10.03;;;;;;;;;;5057317;28;20554;-59
2023/01/26 13:47:56;;;;;;;39.57;11.53;;;;;;;;;;5073353;28;20558;-59
2023/01/26 13:50:29;;;;;;;38.23;10.30;;;;;;;;;;5050250;28;20535;-59
2023/01/26 13:52:56;;;;;;;44.70;12.43;;;2.80;96.00;;;;;;5061366;28;20696;-59
2023/01/26 13:55:25;;;;;;;43.53;13.27;;;2.80;96.10;;;;;;5065108;28;20481;-59
2023/01/26 13:58:11;;;;;;;50.20;14.67;;;2.70;95.70;;;;;;5060222;28;20535;-59
2023/01/26 14:00:38;;;;;;;50.67;12.30;;;2.60;96.00;;;;;;5070724;28;20770;-59
2023/01/26 14:03:05;;;;;;;33.40;9.97;;;2.50;96.20;;;;;;5076214;28;20537;-59
2023/01/26 14:05:34;;;;;;;34.60;12.27;;;2.50;96.40;;;;;;5044825;28;20483;-59